createdAt,value
2017-10-04T00:01:00.552Z,3.50
2017-10-04T00:03:27.267Z,4.17
2017-10-04T00:05:53.843Z,3.90
2017-10-04T00:08:20.445Z,3.70
2017-10-04T00:10:47.100Z,3.47
2017-10-04T00:13:13.681Z,4.10
2017-10-04T00:15:40.272Z,3.23
2017-10-04T00:18:06.894Z,4.30
2017-10-04T00:20:33.481Z,3.63
2017-10-04T00:23:00.084Z,3.77
2017-10-04T00:25:26.717Z,3.40
2017-10-04T00:27:53.336Z,3.53
2017-10-04T00:30:19.946Z,4.60
2017-10-04T00:32:46.540Z,3.83
2017-10-04T00:35:13.164Z,4.10
2017-10-04T00:37:39.757Z,3.73
2017-10-04T00:40:06.344Z,3.73
2017-10-04T00:42:32.984Z,3.80
2017-10-04T00:44:59.568Z,3.93
2017-10-04T00:47:26.160Z,3.63
2017-10-04T00:49:52.791Z,4.23
2017-10-04T00:52:19.388Z,3.77
2017-10-04T00:54:45.983Z,3.60
2017-10-04T00:57:12.602Z,3.97
2017-10-04T00:59:39.221Z,3.07
2017-10-04T01:02:05.817Z,3.70
2017-10-04T01:04:32.416Z,4.73
2017-10-04T01:06:59.035Z,5.10
2017-10-04T01:09:25.640Z,3.90
2017-10-04T01:11:52.253Z,4.40
2017-10-04T01:14:18.869Z,3.80
2017-10-04T01:16:45.503Z,4.50
2017-10-04T01:19:12.093Z,3.70
2017-10-04T01:21:38.696Z,3.80
2017-10-04T01:24:05.308Z,4.77
2017-10-04T01:26:31.904Z,3.90
2017-10-04T01:28:58.496Z,3.60
2017-10-04T01:31:25.105Z,3.70
2017-10-04T01:33:51.716Z,4.10
2017-10-04T01:36:18.337Z,4.13
2017-10-04T01:38:44.932Z,4.20
2017-10-04T01:41:11.557Z,4.07
2017-10-04T01:43:38.181Z,4.10
2017-10-04T01:46:04.784Z,3.90
2017-10-04T01:48:31.364Z,3.90
2017-10-04T01:50:58.031Z,4.00
2017-10-04T01:53:24.629Z,4.17
2017-10-04T01:55:51.228Z,4.53
2017-10-04T01:58:17.857Z,4.50
2017-10-04T02:00:44.481Z,4.63
2017-10-04T02:03:11.179Z,4.13
2017-10-04T02:05:37.822Z,4.50
2017-10-04T02:08:04.428Z,3.63
2017-10-04T02:10:31.016Z,3.30
2017-10-04T02:12:57.638Z,3.60
2017-10-04T02:15:24.248Z,3.67
2017-10-04T02:17:50.852Z,3.87
2017-10-04T02:20:17.464Z,3.63
2017-10-04T02:22:44.074Z,3.63
2017-10-04T02:25:10.675Z,3.77
2017-10-04T02:27:37.289Z,3.70
2017-10-04T02:30:03.881Z,4.30
2017-10-04T02:32:30.476Z,3.83
2017-10-04T02:34:57.088Z,3.93
2017-10-04T02:37:23.798Z,4.47
2017-10-04T02:39:50.398Z,3.93
2017-10-04T02:42:17.810Z,4.30
2017-10-04T02:44:44.448Z,3.83
2017-10-04T02:47:11.032Z,3.93
2017-10-04T02:49:37.623Z,4.30
2017-10-04T02:52:04.236Z,4.07
2017-10-04T02:54:30.832Z,3.80
2017-10-04T02:56:57.447Z,4.10
2017-10-04T02:59:24.056Z,4.20
2017-10-04T03:01:50.676Z,4.57
2017-10-04T03:04:17.277Z,4.40
2017-10-04T03:06:43.869Z,4.13
2017-10-04T03:09:10.488Z,4.83
2017-10-04T03:11:37.084Z,4.63
2017-10-04T03:14:03.697Z,4.40
2017-10-04T03:16:30.292Z,4.30
2017-10-04T03:18:57.216Z,4.60
2017-10-04T03:21:23.808Z,5.80
2017-10-04T03:23:50.414Z,4.87
2017-10-04T03:26:17.048Z,4.67
2017-10-04T03:28:43.646Z,5.00
2017-10-04T03:31:10.242Z,5.07
2017-10-04T03:33:36.848Z,5.47
2017-10-04T03:36:03.469Z,5.40
2017-10-04T03:38:30.092Z,6.13
2017-10-04T03:40:56.709Z,6.10
2017-10-04T03:43:23.321Z,6.03
2017-10-04T03:45:49.914Z,5.30
2017-10-04T03:48:16.503Z,6.23
2017-10-04T03:50:43.128Z,5.97
2017-10-04T03:53:09.716Z,5.07
2017-10-04T03:55:36.304Z,5.30
2017-10-04T03:58:02.930Z,5.80
2017-10-04T04:00:30.439Z,4.73
2017-10-04T04:02:57.024Z,5.03
2017-10-04T04:05:23.636Z,5.90
2017-10-04T04:07:50.260Z,5.13
2017-10-04T04:10:16.856Z,6.30
2017-10-04T04:12:43.461Z,5.87
2017-10-04T04:15:10.068Z,5.23
2017-10-04T04:17:36.684Z,5.40
2017-10-04T04:20:03.296Z,5.30
2017-10-04T04:22:29.915Z,5.70
2017-10-04T04:24:56.527Z,5.00
2017-10-04T04:27:23.117Z,4.30
2017-10-04T04:29:50.007Z,4.80
2017-10-04T04:32:16.612Z,5.53
2017-10-04T04:34:43.221Z,5.43
2017-10-04T04:37:09.846Z,5.73
2017-10-04T04:39:36.436Z,5.00
2017-10-04T04:42:03.034Z,5.50
2017-10-04T04:44:29.665Z,5.07
2017-10-04T04:46:56.249Z,4.83
2017-10-04T04:49:22.870Z,4.80
2017-10-04T04:51:49.488Z,5.23
2017-10-04T04:54:16.084Z,4.50
2017-10-04T04:56:42.696Z,4.93
2017-10-04T04:59:09.318Z,4.57
2017-10-04T05:01:35.940Z,4.90
2017-10-04T05:04:02.537Z,4.70
2017-10-04T05:06:29.174Z,4.70
2017-10-04T05:08:55.798Z,4.57
2017-10-04T05:11:22.388Z,4.93
2017-10-04T05:13:49.013Z,4.73
2017-10-04T05:16:15.632Z,5.20
2017-10-04T05:18:42.263Z,4.70
2017-10-04T05:21:08.856Z,4.20
2017-10-04T05:23:35.498Z,5.00
2017-10-04T05:26:02.111Z,4.80
2017-10-04T05:28:28.726Z,5.40
2017-10-04T05:30:55.312Z,4.83
2017-10-04T05:33:21.920Z,5.87
2017-10-04T05:35:48.564Z,5.77
2017-10-04T05:38:15.170Z,5.57
2017-10-04T05:40:41.811Z,5.17
2017-10-04T05:43:08.402Z,5.40
2017-10-04T05:45:35.000Z,5.80
2017-10-04T05:48:01.637Z,5.87
2017-10-04T05:50:28.202Z,4.80
2017-10-04T05:52:54.811Z,5.63
2017-10-04T05:55:21.428Z,5.53
2017-10-04T05:57:48.016Z,4.83
2017-10-04T06:00:14.621Z,4.40
2017-10-04T06:02:41.240Z,4.17
2017-10-04T06:05:07.838Z,5.70
2017-10-04T06:07:34.428Z,5.23
2017-10-04T06:10:01.048Z,4.80
2017-10-04T06:12:27.641Z,4.37
2017-10-04T06:14:54.264Z,5.90
2017-10-04T06:17:20.865Z,4.90
2017-10-04T06:19:47.513Z,5.30
2017-10-04T06:22:14.113Z,4.80
2017-10-04T06:24:41.040Z,4.77
2017-10-04T06:27:07.664Z,4.57
2017-10-04T06:29:34.266Z,5.10
2017-10-04T06:32:00.855Z,4.90
2017-10-04T06:34:27.478Z,4.70
2017-10-04T06:36:54.073Z,4.97
2017-10-04T06:39:20.663Z,5.50
2017-10-04T06:41:47.276Z,4.90
2017-10-04T06:44:13.901Z,5.80
2017-10-04T06:46:40.505Z,5.00
2017-10-04T06:49:07.096Z,4.57
2017-10-04T06:51:33.704Z,5.10
2017-10-04T06:54:00.328Z,4.53
2017-10-04T06:56:26.953Z,4.73
2017-10-04T06:58:53.557Z,5.00
2017-10-04T07:01:20.148Z,4.97
2017-10-04T07:03:46.773Z,4.60
2017-10-04T07:06:13.360Z,4.40
2017-10-04T07:08:39.988Z,4.30
2017-10-04T07:11:06.591Z,3.93
2017-10-04T07:13:33.185Z,4.13
2017-10-04T07:15:59.788Z,3.90
2017-10-04T07:18:26.381Z,4.47
2017-10-04T07:20:53.004Z,4.70
2017-10-04T07:23:19.617Z,4.30
2017-10-04T07:25:46.213Z,4.73
2017-10-04T07:28:12.880Z,4.80
2017-10-04T07:30:39.468Z,4.80
2017-10-04T07:33:06.130Z,4.97
2017-10-04T07:35:32.733Z,4.90
2017-10-04T07:37:59.320Z,4.60
2017-10-04T07:40:25.932Z,3.97
2017-10-04T07:42:52.536Z,4.10
2017-10-04T07:45:19.176Z,4.63
2017-10-04T07:47:45.776Z,4.87
2017-10-04T07:50:12.372Z,5.03
2017-10-04T07:52:38.999Z,5.30
2017-10-04T07:55:05.588Z,4.40
2017-10-04T07:57:32.185Z,5.00
2017-10-04T07:59:58.805Z,4.40
2017-10-04T08:04:58.513Z,4.67
2017-10-04T08:07:25.102Z,4.57
2017-10-04T08:09:51.720Z,5.10
2017-10-04T08:12:18.312Z,5.23
2017-10-04T08:14:44.924Z,5.73
2017-10-04T08:17:11.512Z,4.33
2017-10-04T08:19:38.118Z,4.50
2017-10-04T08:22:04.732Z,5.10
2017-10-04T08:24:31.808Z,4.20
2017-10-04T08:26:58.405Z,4.90
2017-10-04T08:29:25.006Z,4.90
2017-10-04T08:31:51.613Z,4.77
2017-10-04T08:34:18.208Z,3.97
2017-10-04T08:36:44.829Z,4.80
2017-10-04T08:39:11.412Z,3.90
2017-10-04T08:41:38.053Z,3.93
2017-10-04T08:44:04.641Z,4.53
2017-10-04T08:46:31.232Z,4.80
2017-10-04T08:48:57.866Z,4.80
2017-10-04T08:51:24.443Z,4.20
2017-10-04T08:53:51.057Z,4.70
2017-10-04T08:56:17.672Z,4.17
2017-10-04T08:58:44.343Z,4.67
2017-10-04T09:01:10.998Z,3.60
2017-10-04T09:03:37.659Z,4.03
2017-10-04T09:06:05.957Z,3.70
2017-10-04T09:08:32.560Z,4.30
2017-10-04T09:10:59.174Z,4.17
2017-10-04T09:13:25.764Z,3.83
2017-10-04T09:15:52.381Z,4.23
2017-10-04T09:18:18.991Z,4.70
2017-10-04T09:20:45.595Z,3.90
2017-10-04T09:23:12.530Z,4.00
2017-10-04T09:25:39.124Z,3.70
2017-10-04T09:28:05.712Z,3.80
2017-10-04T09:30:32.328Z,3.57
2017-10-04T09:32:58.934Z,3.37
2017-10-04T09:35:25.541Z,3.53
2017-10-04T09:37:52.379Z,3.70
2017-10-04T09:40:18.983Z,3.30
2017-10-04T09:42:45.585Z,3.30
2017-10-04T09:45:12.184Z,3.13
2017-10-04T09:47:38.796Z,3.50
2017-10-04T09:50:05.391Z,3.80
2017-10-04T09:52:32.011Z,3.00
2017-10-04T09:54:58.600Z,4.23
2017-10-04T09:57:25.224Z,3.00
2017-10-04T09:59:51.824Z,3.20
2017-10-04T10:02:18.420Z,2.40
2017-10-04T10:04:45.916Z,2.80
2017-10-04T10:07:12.508Z,2.50
2017-10-04T10:09:39.120Z,2.87
2017-10-04T10:12:05.736Z,2.80
2017-10-04T10:14:32.333Z,3.40
2017-10-04T10:16:58.944Z,3.10
2017-10-04T10:19:25.549Z,3.00
2017-10-04T10:21:52.147Z,2.90
2017-10-04T10:24:18.773Z,3.27
2017-10-04T10:26:45.384Z,3.17
2017-10-04T10:29:11.980Z,3.50
2017-10-04T10:31:38.605Z,3.70
2017-10-04T10:34:05.197Z,3.97
2017-10-04T10:36:31.790Z,3.20
2017-10-04T10:38:58.404Z,2.60
2017-10-04T10:41:25.025Z,3.23
2017-10-04T10:43:51.644Z,3.23
2017-10-04T10:46:18.241Z,3.57
2017-10-04T10:48:44.852Z,2.90
2017-10-04T10:51:11.472Z,2.63
2017-10-04T10:53:38.070Z,3.00
2017-10-04T10:56:04.658Z,2.90
2017-10-04T10:58:31.273Z,3.00
2017-10-04T11:00:57.877Z,3.27
2017-10-04T11:03:24.484Z,2.80
2017-10-04T11:05:51.104Z,3.20
2017-10-04T11:08:17.702Z,2.90
2017-10-04T11:10:44.313Z,3.13
2017-10-04T11:13:10.911Z,3.50
2017-10-04T11:15:37.530Z,2.80
2017-10-04T11:18:04.120Z,3.13
2017-10-04T11:20:30.728Z,3.17
2017-10-04T11:22:57.347Z,2.73
2017-10-04T11:25:23.944Z,2.97
2017-10-04T11:27:50.592Z,2.70
2017-10-04T11:30:17.188Z,2.63
2017-10-04T11:32:43.776Z,2.57
2017-10-04T11:35:10.409Z,2.93
2017-10-04T11:37:37.001Z,3.20
2017-10-04T11:40:03.604Z,3.03
2017-10-04T11:42:30.216Z,2.60
2017-10-04T11:44:56.808Z,3.23
2017-10-04T11:47:23.517Z,2.40
2017-10-04T11:49:50.093Z,2.10
2017-10-04T11:52:16.712Z,2.73
2017-10-04T11:54:43.296Z,2.70
2017-10-04T11:57:09.913Z,3.43
2017-10-04T11:59:36.501Z,2.93
2017-10-04T12:02:03.122Z,2.13
2017-10-04T12:04:29.712Z,2.53
2017-10-04T12:06:56.339Z,2.70
2017-10-04T12:09:22.929Z,2.43
2017-10-04T12:11:49.555Z,2.33
2017-10-04T12:14:16.160Z,2.17
2017-10-04T12:16:42.748Z,2.30
2017-10-04T12:19:09.367Z,3.27
2017-10-04T12:21:35.984Z,2.30
2017-10-04T12:24:02.649Z,2.07
2017-10-04T12:26:29.276Z,2.27
2017-10-04T12:28:55.873Z,2.20
2017-10-04T12:31:22.482Z,2.70
2017-10-04T12:33:49.097Z,2.43
2017-10-04T12:36:15.716Z,2.70
2017-10-04T12:38:42.342Z,2.43
2017-10-04T12:41:08.933Z,2.20
2017-10-04T12:43:35.554Z,3.13
2017-10-04T12:46:02.154Z,2.60
2017-10-04T12:48:28.745Z,2.50
2017-10-04T12:50:55.366Z,4.13
2017-10-04T12:53:21.992Z,3.07
2017-10-04T12:55:48.584Z,3.03
2017-10-04T12:58:15.194Z,2.90
2017-10-04T13:00:41.814Z,3.40
2017-10-04T13:03:08.412Z,2.90
2017-10-04T13:05:35.012Z,2.70
2017-10-04T13:08:01.625Z,3.40
2017-10-04T13:10:28.233Z,3.20
2017-10-04T13:12:54.828Z,2.67
2017-10-04T13:15:21.450Z,2.50
2017-10-04T13:17:48.043Z,2.70
2017-10-04T13:20:14.672Z,3.40
2017-10-04T13:22:41.273Z,3.70
2017-10-04T13:25:07.860Z,3.07
2017-10-04T13:27:34.484Z,2.80
2017-10-04T13:30:01.086Z,3.30
2017-10-04T13:32:27.677Z,3.23
2017-10-04T13:34:54.296Z,3.37
2017-10-04T13:37:20.916Z,3.03
2017-10-04T13:39:47.510Z,2.87
2017-10-04T13:42:14.097Z,2.80
2017-10-04T13:44:40.716Z,3.30
2017-10-04T13:47:07.305Z,3.10
2017-10-04T13:49:33.928Z,3.87
2017-10-04T13:52:00.536Z,3.10
2017-10-04T13:54:27.132Z,3.33
2017-10-04T13:56:53.749Z,3.03
2017-10-04T13:59:20.341Z,2.97
2017-10-04T14:01:46.960Z,2.60
2017-10-04T14:04:13.589Z,3.03
2017-10-04T14:06:40.221Z,2.90
2017-10-04T14:09:06.813Z,3.10
2017-10-04T14:11:33.407Z,2.80
2017-10-04T14:14:00.024Z,2.70
2017-10-04T14:16:26.624Z,3.57
2017-10-04T14:18:53.240Z,2.70
2017-10-04T14:21:19.849Z,2.60
2017-10-04T14:23:46.466Z,2.57
2017-10-04T14:26:13.072Z,3.20
2017-10-04T14:28:39.692Z,2.70
2017-10-04T14:31:06.290Z,2.23
2017-10-04T14:33:32.880Z,2.80
2017-10-04T14:35:59.491Z,2.23
2017-10-04T14:38:26.112Z,2.70
2017-10-04T14:40:52.700Z,2.90
2017-10-04T14:43:19.432Z,2.60
2017-10-04T14:45:46.030Z,3.33
2017-10-04T14:48:12.617Z,3.60
2017-10-04T14:50:39.241Z,3.47
2017-10-04T14:53:05.837Z,3.20
2017-10-04T14:55:32.428Z,3.10
2017-10-04T14:57:59.049Z,3.03
2017-10-04T15:00:25.696Z,2.77
2017-10-04T15:02:52.298Z,2.97
2017-10-04T15:05:18.887Z,2.27
2017-10-04T15:07:45.517Z,2.80
2017-10-04T15:10:12.108Z,1.80
2017-10-04T15:12:38.715Z,3.30
2017-10-04T15:15:05.342Z,1.83
2017-10-04T15:17:31.924Z,1.80
2017-10-04T15:19:58.540Z,1.80
2017-10-04T15:22:25.162Z,2.13
2017-10-04T15:24:51.758Z,2.03
2017-10-04T15:27:18.381Z,2.50
2017-10-04T15:29:44.973Z,1.77
2017-10-04T15:32:11.584Z,1.80
2017-10-04T15:34:38.206Z,1.70
2017-10-04T15:37:04.806Z,2.13
2017-10-04T15:39:31.396Z,2.33
2017-10-04T15:41:58.034Z,2.50
2017-10-04T15:44:24.632Z,2.60
2017-10-04T15:46:51.234Z,1.97
2017-10-04T15:49:17.842Z,2.20
2017-10-04T15:51:44.468Z,2.90
2017-10-04T15:54:11.084Z,2.13
2017-10-04T15:56:37.680Z,1.80
2017-10-04T15:59:04.297Z,1.90
2017-10-04T16:01:30.900Z,1.73
2017-10-04T16:03:57.515Z,2.40
2017-10-04T16:06:24.126Z,2.20
2017-10-04T16:08:50.740Z,2.33
2017-10-04T16:11:17.329Z,2.30
2017-10-04T16:13:43.937Z,2.50
2017-10-04T16:16:10.532Z,1.90
2017-10-04T16:18:37.144Z,1.77
2017-10-04T16:21:03.736Z,2.10
2017-10-04T16:23:30.348Z,1.97
2017-10-04T16:25:56.939Z,2.00
2017-10-04T16:28:23.560Z,2.33
2017-10-04T16:30:50.166Z,2.77
2017-10-04T16:33:16.781Z,3.43
2017-10-04T16:35:43.403Z,2.27
2017-10-04T16:38:10.016Z,2.47
2017-10-04T16:40:36.736Z,2.87
2017-10-04T16:43:03.352Z,2.50
2017-10-04T16:45:29.977Z,2.53
2017-10-04T16:47:56.614Z,2.10
2017-10-04T16:50:23.229Z,2.10
2017-10-04T16:52:49.814Z,2.10
2017-10-04T16:55:16.432Z,2.30
2017-10-04T16:57:43.028Z,2.37
2017-10-04T17:00:09.662Z,2.10
2017-10-04T17:02:36.256Z,2.37
2017-10-04T17:05:02.892Z,2.20
2017-10-04T17:07:29.489Z,2.70
2017-10-04T17:09:57.002Z,2.80
2017-10-04T17:12:23.607Z,2.40
2017-10-04T17:14:50.207Z,2.23
2017-10-04T17:17:16.820Z,2.30
2017-10-04T17:19:43.494Z,2.23
2017-10-04T17:22:10.105Z,2.40
2017-10-04T17:24:36.705Z,2.63
2017-10-04T17:27:03.337Z,2.10
2017-10-04T17:29:29.937Z,2.33
2017-10-04T17:31:56.576Z,2.37
2017-10-04T17:34:23.200Z,2.40
2017-10-04T17:36:49.819Z,2.70
2017-10-04T17:39:16.449Z,2.73
2017-10-04T17:41:43.057Z,2.40
2017-10-04T17:44:09.668Z,2.83
2017-10-04T17:46:36.292Z,2.77
2017-10-04T17:49:02.908Z,3.03
2017-10-04T17:51:29.493Z,2.50
2017-10-04T17:53:56.231Z,2.63
2017-10-04T17:56:22.826Z,3.40
2017-10-04T17:58:49.497Z,2.10
2017-10-04T18:01:16.089Z,2.40
2017-10-04T18:03:42.719Z,2.23
2017-10-04T18:06:09.333Z,2.20
2017-10-04T18:08:35.942Z,1.90
2017-10-04T18:11:02.645Z,2.20
2017-10-04T18:13:29.289Z,1.80
2017-10-04T18:15:55.900Z,2.17
2017-10-04T18:18:22.506Z,2.47
2017-10-04T18:20:49.132Z,2.30
2017-10-04T18:23:15.759Z,2.40
2017-10-04T18:25:42.389Z,2.73
2017-10-04T18:28:08.977Z,2.10
2017-10-04T18:30:35.597Z,2.20
2017-10-04T18:33:02.202Z,2.13
2017-10-04T18:35:28.986Z,2.00
2017-10-04T18:37:55.658Z,2.20
2017-10-04T18:40:22.273Z,1.97
2017-10-04T18:42:48.884Z,1.87
2017-10-04T18:45:15.508Z,1.90
2017-10-04T18:47:42.129Z,2.10
2017-10-04T18:50:08.740Z,2.50
2017-10-04T18:52:35.347Z,2.00
2017-10-04T18:55:01.976Z,2.20
2017-10-04T18:57:28.568Z,2.10
2017-10-04T18:59:55.171Z,2.23
2017-10-04T19:02:21.784Z,1.87
2017-10-04T19:04:48.380Z,2.50
2017-10-04T19:07:14.989Z,2.20
2017-10-04T19:09:41.580Z,2.40
2017-10-04T19:12:08.201Z,2.23
2017-10-04T19:14:34.797Z,2.43
2017-10-04T19:17:01.413Z,2.07
2017-10-04T19:19:28.001Z,2.10
2017-10-04T19:21:54.617Z,2.07
2017-10-04T19:24:21.240Z,2.60
2017-10-04T19:26:47.845Z,2.73
2017-10-04T19:29:14.453Z,2.17
2017-10-04T19:31:41.045Z,3.00
2017-10-04T19:34:07.658Z,2.73
2017-10-04T19:36:34.280Z,2.40
2017-10-04T19:39:00.876Z,2.63
2017-10-04T19:41:27.468Z,2.67
2017-10-04T19:43:54.081Z,2.37
2017-10-04T19:46:20.701Z,1.87
2017-10-04T19:48:47.319Z,2.50
2017-10-04T19:51:13.920Z,2.03
2017-10-04T19:53:40.536Z,2.20
2017-10-04T19:56:07.148Z,2.03
2017-10-04T19:58:33.770Z,2.40
2017-10-04T20:01:00.357Z,2.40
2017-10-04T20:03:26.997Z,2.67
2017-10-04T20:05:53.623Z,2.60
2017-10-04T20:08:20.231Z,3.30
2017-10-04T20:10:46.841Z,3.23
2017-10-04T20:13:13.433Z,3.77
2017-10-04T20:15:40.052Z,3.20
2017-10-04T20:18:06.674Z,3.53
2017-10-04T20:20:33.274Z,3.60
2017-10-04T20:22:59.899Z,3.27
2017-10-04T20:25:26.516Z,3.40
2017-10-04T20:27:53.116Z,3.20
2017-10-04T20:30:19.757Z,2.93
2017-10-04T20:32:46.357Z,3.23
2017-10-04T20:35:12.956Z,3.53
2017-10-04T20:37:39.592Z,3.83
2017-10-04T20:40:06.190Z,3.30
2017-10-04T20:42:32.783Z,3.90
2017-10-04T20:44:59.396Z,4.83
2017-10-04T20:47:25.994Z,3.83
2017-10-04T20:49:52.605Z,3.20
2017-10-04T20:52:19.229Z,3.10
2017-10-04T20:54:45.836Z,3.50
2017-10-04T20:57:12.458Z,3.07
2017-10-04T20:59:39.057Z,3.37
2017-10-04T21:02:05.672Z,4.20
2017-10-04T21:04:32.263Z,3.23
2017-10-04T21:06:58.852Z,2.83
2017-10-04T21:09:25.469Z,3.40
2017-10-04T21:11:52.052Z,3.20
2017-10-04T21:14:18.697Z,2.57
2017-10-04T21:16:45.303Z,3.27
2017-10-04T21:19:11.900Z,3.30
2017-10-04T21:21:38.520Z,3.77
2017-10-04T21:24:05.130Z,3.53
2017-10-04T21:26:31.761Z,3.23
2017-10-04T21:28:58.348Z,3.20
2017-10-04T21:31:24.947Z,3.43
2017-10-04T21:33:51.577Z,3.77
2017-10-04T21:36:18.213Z,3.87
2017-10-04T21:38:44.821Z,3.90
2017-10-04T21:41:11.447Z,3.87
2017-10-04T21:43:38.038Z,4.17
2017-10-04T21:46:04.637Z,3.60
2017-10-04T21:48:31.258Z,4.07
2017-10-04T21:50:57.868Z,4.20
2017-10-04T21:53:24.480Z,3.53
2017-10-04T21:55:51.090Z,3.47
2017-10-04T21:58:17.694Z,3.57
2017-10-04T22:00:44.298Z,4.00
2017-10-04T22:03:10.914Z,3.70
2017-10-04T22:05:37.532Z,3.90
2017-10-04T22:08:04.680Z,3.70
2017-10-04T22:10:31.265Z,3.80
2017-10-04T22:12:57.877Z,3.30
2017-10-04T22:15:24.505Z,4.00
2017-10-04T22:17:51.129Z,4.00
2017-10-04T22:20:17.735Z,3.70
2017-10-04T22:22:44.352Z,4.10
2017-10-04T22:25:10.997Z,4.23
2017-10-04T22:27:37.596Z,3.87
2017-10-04T22:30:04.205Z,3.80
2017-10-04T22:32:30.837Z,3.60
2017-10-04T22:34:57.447Z,4.30
2017-10-04T22:37:24.060Z,4.00
2017-10-04T22:39:50.666Z,3.83
2017-10-04T22:42:17.293Z,3.33
2017-10-04T22:44:43.903Z,3.60
2017-10-04T22:47:10.507Z,3.87
2017-10-04T22:49:37.121Z,3.80
2017-10-04T22:52:03.721Z,4.03
2017-10-04T22:54:30.341Z,3.70
2017-10-04T22:56:56.965Z,3.83
2017-10-04T22:59:23.580Z,4.00
2017-10-04T23:01:50.197Z,3.00
2017-10-04T23:04:16.796Z,3.50
2017-10-04T23:06:43.408Z,2.90
2017-10-04T23:09:10.020Z,3.17
2017-10-04T23:11:36.632Z,3.90
2017-10-04T23:14:03.248Z,3.43
2017-10-04T23:16:29.844Z,3.47
2017-10-04T23:29:53.794Z,3.17
2017-10-04T23:32:20.387Z,3.40
2017-10-04T23:34:47.320Z,2.83
2017-10-04T23:37:13.921Z,3.70
2017-10-04T23:39:40.529Z,2.87
2017-10-04T23:42:07.188Z,3.30
2017-10-04T23:44:33.780Z,2.90
2017-10-04T23:47:00.376Z,2.73
2017-10-04T23:49:26.986Z,3.33
2017-10-04T23:51:53.584Z,2.83
2017-10-04T23:54:20.210Z,2.73
2017-10-04T23:56:46.810Z,3.30
2017-10-04T23:59:13.401Z,3.30
